x

East Santa Barbara - 12nm Southwest Of Santa Barbara, Ca (46053) Weather Station

11:10am - Tue 3rd May 2016 All times are PDT. -7 hours from GMT.

  • Wind
    9mph, 11mph gusts
  • Sea Temp 57°f
  • Air Temp 55°f
  • Sea Pressure 1016.4mb
  • East Santa Barbara  - 12nm Southwest Of Santa Barbara, Ca
  • East Santa Barbara  - 12nm Southwest Of Santa Barbara, Ca

More Historic Weather Station data

Upgrade to MSW Pro to gain access to the past 30 days of data for over 8000 Wavebouys and Weather Stations around the globe.

Join Pro

Comparision Forecast

View Surf forecast
   
Tue 05/03 11:10am  -   -   -  9 11 mph 1016.4mb 57f 55f
11:00am 4ft  -  8s 9 11 mph 1016.4mb 57f 55f
10:50am 4ft  -  8s 7 9 mph 1016.3mb 57f 55f
10:49am 4ft 14s  -   -  mph - - -
10:40am  -   -   -  7 9 mph 1016.3mb 57f 55f
10:30am  -   -   -  7 9 mph 1016.3mb 57f 55f
10:20am  -   -   -  7 11 mph 1016.3mb 57f 55f
10:10am  -   -   -  7 9 mph 1016.4mb 57f 55f
10:00am 4ft  -  8s 9
mph
1016.3mb 56f 55f
9:50am  -   -   -  9 11 mph 1016.1mb 57f 55f
9:49am 4ft 15s  -   -  mph - - -
9:40am 4ft  -  8s 9 11 mph 1016.1mb 56f 55f
9:30am  -   -   -  9 13 mph 1016.1mb 56f 55f
9:20am  -   -   -  11
mph
1016mb 56f 55f
9:10am  -   -   -  11 13 mph 1016mb 56f 55f
9:00am 4ft  -  9s 11 13 mph 1016mb 56f 55f
8:50am 4ft  -  9s 11 13 mph 1016mb 56f 55f
8:49am 4ft 14s  -   -  mph - - -
8:40am  -   -   -  11 13 mph 1015.9mb 56f 55f
8:30am  -   -   -  11 13 mph 1016mb 56f 55f
8:20am  -   -   -  11 13 mph 1015.9mb 56f 56f
8:10am  -   -   -  11 13 mph 1015.9mb 56f 56f
8:00am 3.5ft  -  8s 9 11 mph 1015.8mb 56f 56f
7:50am  -   -   -  9 11 mph 1015.5mb 56f 56f
7:49am 3.5ft 15s  -   -  mph - - -
7:40am  -   -   -  9 11 mph 1015.5mb 56f 56f
7:30am  -   -   -  7 9 mph 1015.3mb 56f 55f
7:20am  -   -   -  4 7 mph 1015.1mb 56f 56f
7:10am  -   -   -  4 7 mph 1015mb 56f 56f
7:00am 3.5ft  -  7s 4 7 mph 1015mb 56f 55f
6:50am 3.5ft  -  7s 2 4 mph 1014.9mb 56f 55f
6:49am 3.5ft 15s  -   -  mph - - -
6:40am  -   -   -  2 4 mph 1014.9mb 56f 55f
6:30am  -   -   -  4 7 mph 1014.8mb 56f 55f
6:20am  -   -   -  4 7 mph 1014.8mb 56f 55f
6:10am  -   -   -  7
mph
1014.6mb 56f 55f
6:00am  -   -   -  7 11 mph 1014.8mb 56f 55f
5:50am  -   -   -  7 11 mph 1015mb 56f 55f
5:40am  -   -   -  7 9 mph 1014.6mb 56f 55f
5:30am  -   -   -  7 9 mph 1014.5mb 56f 55f
5:20am  -   -   -  7 9 mph 1014.5mb 56f 55f
5:10am  -   -   -  7 9 mph 1014.5mb 56f 55f
5:00am 3.5ft  -  8s 9 11 mph 1014.4mb 56f 55f
4:50am 3.5ft  -  8s 7 9 mph 1014.4mb 56f 55f
4:49am 3.5ft 15s  -   -  mph - - -
4:40am  -   -   -  7 9 mph 1014.4mb 56f 55f
4:30am  -   -   -  9
mph
1014.4mb 56f 55f
4:20am  -   -   -  9 11 mph 1014.4mb 56f 55f
4:10am  -   -   -  9 11 mph 1014.4mb 56f 55f
4:00am 4ft  -  7s 11 13 mph 1014.5mb 57f 55f
3:50am  -   -   -  11 13 mph 1014.5mb 57f 55f
3:49am 4ft 13s  -   -  mph - - -
3:40am 4ft  -  7s 11 13 mph 1014.5mb 57f 55f
3:30am  -   -   -  11 13 mph 1014.5mb 57f -
3:20am  -   -   -  9 13 mph 1014.5mb 57f 56f
3:10am  -   -   -  9 11 mph 1014.5mb 57f 56f
3:00am 3.5ft  -  6s 7 9 mph 1014.5mb 56f 56f
2:50am  -   -   -  7 9 mph 1014.5mb 56f 56f
2:49am 3.5ft 12s  -   -  mph - - -
2:40am  -   -   -  7
mph
1014.6mb 56f 57f
2:30am  -   -   -  7 9 mph 1014.6mb 56f 57f
2:20am  -   -   -  7
mph
1014.6mb 56f 56f
2:10am  -   -   -  7 9 mph 1014.8mb 56f 56f
2:00am 3.5ft  -  6s 7 9 mph 1014.9mb 56f 56f
1:50am  -   -   -  7 9 mph 1015mb 56f 56f
1:49am 3.5ft 15s  -   -  mph - - -
1:40am  -   -   -  7 9 mph 1015mb 56f 56f
1:30am  -   -   -  9 13 mph 1015mb 56f 56f
1:20am  -   -   -  11 13 mph 1015mb 56f 56f
1:10am  -   -   -  11 13 mph 1015.1mb 56f 56f
1:00am 3.5ft  -  6s 9 13 mph 1015mb 56f 56f
12:50am  -   -   -  9 11 mph 1015mb 56f 56f
12:49am 3.5ft 13s  -   -  mph - - -
12:40am  -   -   -  11 13 mph 1015mb 56f 56f
12:30am  -   -   -  9 11 mph 1015mb 56f 56f
12:20am  -   -   -  9 11 mph 1015mb 56f 56f
12:10am  -   -   -  9
mph
1015mb 56f 56f
12:00am 3.5ft  -  6s 7 9 mph 1015mb 56f 56f
Mon 05/02 11:50pm  -   -   -  7 11 mph 1015mb 56f 56f
11:49pm 3.5ft 13s  -   -  mph - - -
11:40pm  -   -   -  9
mph
1015.1mb 56f 56f
11:30pm  -   -   -  9
mph
1015.1mb 56f 57f
11:20pm  -   -   -  7 9 mph 1015.1mb 56f 57f
11:10pm  -   -   -  7 9 mph 1015.1mb 56f 57f
11:00pm 3.5ft  -  5s 9 11 mph 1015mb 56f 57f
10:50pm  -   -   -  9 11 mph 1015.3mb 56f 57f
10:49pm 3.5ft 13s  -   -  mph - - -
10:40pm  -   -   -  9 11 mph 1015.3mb 56f 57f
10:30pm  -   -   -  9 13 mph 1015.1mb 56f 57f
10:20pm  -   -   -  11 13 mph 1015.3mb 56f 57f
10:10pm  -   -   -  11 13 mph 1015.3mb 56f 57f
10:00pm 4.5ft  -  5s 11 13 mph 1015.4mb 56f 57f
9:50pm 4.5ft  -  5s 9 11 mph 1015.4mb 56f 57f
9:49pm 4.5ft 13s  -   -  mph - - -
9:40pm  -   -   -  9 11 mph 1015.5mb 57f 57f
9:30pm  -   -   -  9
mph
1015.5mb 56f 57f
9:20pm  -   -   -  9 11 mph 1015.5mb 56f 57f
9:10pm  -   -   -  9 11 mph 1015.5mb 56f 57f
9:00pm 3.5ft  -  5s 11 16 mph 1015.5mb 56f 57f
8:50pm  -   -   -  13 16 mph 1015.5mb 56f 57f
8:49pm 3.5ft 13s  -   -  mph - - -
8:40pm  -   -   -  13 18 mph 1015.5mb 56f 56f
8:30pm  -   -   -  13 18 mph 1015.4mb 56f 56f
8:20pm  -   -   -  16 18 mph 1015.3mb 56f 56f
8:10pm  -   -   -  16 18 mph 1015.3mb 56f 56f
8:00pm 4ft  -  6s 13 18 mph 1015.3mb 56f 56f
7:50pm  -   -   -  13 18 mph 1015.3mb 56f 56f
7:49pm 4ft 13s  -   -  mph - - -
7:40pm  -   -   -  13 18 mph 1015.4mb 56f 56f
7:30pm  -   -   -  13 18 mph 1015.4mb 56f 57f
7:20pm  -   -   -  13 18 mph 1015.3mb 56f 57f
7:10pm  -   -   -  13 18 mph 1015.3mb 57f 57f
7:00pm 3.5ft  -  5s 13 16 mph 1015.5mb 57f 57f
6:50pm  -   -   -  16 18 mph 1015.5mb 57f 57f
6:49pm 3.5ft 13s  -   -  mph - - -
6:40pm  -   -   -  16 18 mph 1015.5mb 57f 56f
6:30pm  -   -   -  16 20 mph 1015.5mb 57f 56f
6:20pm  -   -   -  16 20 mph 1015.5mb 57f 56f
6:10pm  -   -   -  16 18 mph 1015.5mb 57f 56f
6:00pm 3.5ft  -  6s 16 18 mph 1015.5mb 57f 56f
5:50pm 3.5ft  -  6s 16 18 mph 1015.6mb 57f 56f
5:49pm 3.5ft 13s  -   -  mph - - -
5:40pm  -   -   -  16 18 mph 1015.8mb 57f 56f
5:30pm  -   -   -  16 18 mph 1015.8mb 57f 56f
5:20pm  -   -   -  13 16 mph 1015.9mb 57f 56f
5:10pm  -   -   -  13 16 mph 1015.9mb 57f 56f
5:00pm 3.5ft  -  7s 13 16 mph 1016mb 57f 56f
4:50pm 3.5ft  -  7s 13 16 mph 1016mb 57f 56f
4:49pm 3.5ft 12s  -   -  mph - - -
4:40pm 3.5ft  -  7s 11 16 mph 1016mb 57f 56f
4:30pm  -   -   -  13 16 mph 1016mb 57f 56f
4:20pm  -   -   -  11 13 mph 1016.1mb 57f 56f
4:10pm  -   -   -  11 13 mph 1016.3mb 57f 56f
4:00pm 2.5ft  -  8s 11 13 mph 1016.4mb 57f 56f
3:50pm  -   -   -  11 16 mph 1016.5mb 57f 56f
3:49pm 2.5ft 13s  -   -  mph - - -
3:40pm  -   -   -  11 16 mph 1016.5mb 57f 56f
3:30pm  -   -   -  13 16 mph 1016.5mb 57f 56f
3:20pm  -   -   -  11 16 mph 1016.6mb 57f 56f
3:10pm  -   -   -  11 13 mph 1016.9mb 57f 56f
3:00pm 3ft 13s 9s 11 13 mph 1016.9mb - -
2:50pm  -   -   -  11 13 mph 1017mb 57f 56f
2:49pm 3ft 13s  -   -  mph - - -
2:40pm  -   -   -  11 13 mph 1017.1mb 56f 56f
2:30pm  -   -   -  9 11 mph 1017.5mb 56f 56f
2:20pm  -   -   -  9 11 mph 1017.5mb 56f 56f
2:10pm  -   -   -  9 11 mph 1017.4mb 56f 56f
2:00pm 3ft  -  8s 9 11 mph 1017.5mb 56f 56f
1:50pm 3ft  -  8s 9 11 mph 1017.5mb 56f 56f
1:49pm 3ft 13s  -   -  mph - - -
1:40pm  -   -   -  9 11 mph 1017.8mb 56f 55f
1:30pm  -   -   -  7 9 mph 1017.8mb 56f 55f
1:20pm  -   -   -  7 9 mph 1018mb 56f 55f
1:10pm  -   -   -  7 9 mph 1018mb 56f 55f
1:00pm 3ft  -  8s 9 11 mph 1018.1mb 56f 55f
12:50pm 3ft  -  8s 9
mph
1018.3mb 56f 55f
12:49pm 3ft 14s  -   -  mph - - -
12:40pm  -   -   -  9 11 mph 1018.3mb 56f 55f
12:30pm  -   -   -  9
mph
1018.5mb 56f 55f
12:20pm  -   -   -  7 9 mph 1018.5mb 55f 55f
12:10pm  -   -   -  7 9 mph 1018.6mb 55f 55f
12:00pm 3.5ft  -  9s 4 9 mph 1018.8mb 55f 55f
11:50am  -   -   -  4 7 mph 1018.9mb 55f 56f
11:49am 3.5ft 14s  -   -  mph - - -
11:40am  -   -   -  4 7 mph 1018.8mb 55f 56f
11:30am  -   -   -  2 4 mph 1018.8mb 55f 56f
11:20am  -   -   -   -  2 mph 1018.8mb 55f 56f
11:10am  -   -   -   -  2 mph 1018.8mb 55f 56f
11:00am 3.5ft  -  9s  -  2 mph 1018.9mb 55f 56f
10:50am  -   -   -   -  2 mph 1018.8mb 55f 56f
10:49am 3.5ft 13s  -   -  mph - - -
10:40am  -   -   -   -  2 mph 1018.6mb 55f 56f
10:30am  -   -   -  2
mph
1018.6mb 55f 55f
10:20am  -   -   -  2
mph
1018.8mb 55f 55f
10:10am  -   -   -  2
mph
1018.8mb 55f 55f
10:00am  -   -   -   -  2 mph 1018.6mb 55f 55f
9:50am  -   -   -  2
mph
1018.5mb 55f 55f
9:30am  -   -   -  2 4 mph 1018.5mb 55f 55f
9:20am  -   -   -  2 4 mph 1018.5mb 55f 55f
9:10am  -   -   -  2 4 mph 1018.5mb 55f 55f
9:00am 3ft  -  9s 2 4 mph 1018.5mb 55f 55f
8:50am 3ft  -  9s  -  4 mph 1018.3mb 55f 55f
8:49am 3ft 14s  -   -  mph - - -
8:40am  -   -   -  4 7 mph 1018.1mb 55f 55f
8:30am  -   -   -  2 4 mph 1018mb 55f 55f
8:20am  -   -   -   -  2 mph 1018mb 54f 55f
8:10am  -   -   -  2
mph
1018mb 54f 55f
8:00am 3.5ft  -  9s 2
mph
1018mb 54f 55f
7:50am  -   -   -  2 4 mph 1017.9mb 55f 55f
7:49am 3.5ft 14s  -   -  mph - - -
7:40am  -   -   -  2 4 mph 1017.8mb 55f 55f
7:30am  -   -   -  4 7 mph 1017.6mb 55f 55f
7:20am  -   -   -  4
mph
1017.5mb 55f 55f
7:10am  -   -   -  2 4 mph 1017.5mb 55f 55f
7:00am 3ft  -  8s 4 7 mph 1017.4mb 55f 55f
6:50am  -   -   -  2 4 mph 1017mb 55f 55f
6:49am 3ft 14s  -   -  mph - - -
6:40am  -   -   -  2 4 mph 1017mb 55f 55f
6:30am  -   -   -  2 4 mph 1017mb 55f 55f
6:20am  -   -   -  4
mph
1016.9mb 55f 55f
6:10am  -   -   -  2 4 mph 1016.8mb 55f 56f
6:00am 3ft  -  8s 2
mph
1016.5mb 55f 55f
5:50am  -   -   -  4 7 mph 1016.5mb 55f 55f
5:49am 3ft 10s  -   -  mph - - -
5:40am  -   -   -  2 7 mph 1016.5mb 55f 55f
5:30am  -   -   -  4 7 mph 1016.5mb 55f 55f
5:20am  -   -   -  2 4 mph 1016.5mb 55f 55f
5:10am  -   -   -  2 4 mph 1016.5mb 55f 55f
5:00am 3ft  -  8s 2 4 mph 1016.5mb 55f 55f
4:50am  -   -   -  2 4 mph 1016.5mb 55f 55f
4:49am 3ft 13s  -   -  mph - - -
4:40am  -   -   -  2 7 mph 1016.6mb 55f 55f
4:30am  -   -   -  2 4 mph 1016.6mb 55f 55f
4:20am  -   -   -  2 4 mph 1016.6mb 56f 55f
4:10am  -   -   -  2 4 mph 1016.8mb 56f 55f
4:00am 4ft  -  8s 4
mph
1016.8mb 56f 55f
3:50am  -   -   -  4
mph
1016.9mb 56f 55f
3:49am 4ft 14s  -   -  mph - - -
3:40am  -   -   -  4 7 mph 1016.9mb 56f 55f
3:30am  -   -   -  7 9 mph 1016.8mb 56f 55f
3:20am  -   -   -  7 9 mph 1016.6mb 57f 55f
3:10am  -   -   -  9 11 mph 1016.6mb 57f 55f
3:00am 3.5ft  -  8s 7 9 mph 1016.5mb 57f 55f
2:50am  -   -   -  7 9 mph 1016.5mb 57f 56f
2:49am 3.5ft 14s  -   -  mph - - -
2:40am  -   -   -  7 9 mph 1016.5mb 57f 55f
2:30am  -   -   -  7 9 mph 1016.4mb 57f 55f
2:20am  -   -   -  7 9 mph 1016.3mb 57f 55f
2:10am  -   -   -  7 9 mph 1016.4mb 57f 55f
2:00am 3.5ft  -  7s 7 9 mph 1016.4mb 57f 55f
1:50am  -   -   -  7 9 mph 1016.4mb 57f 55f
1:49am 3.5ft 10s  -   -  mph - - -
1:40am  -   -   -  7
mph
1016.4mb 57f 55f
1:30am  -   -   -  4 7 mph 1016.4mb 57f 56f
1:20am  -   -   -  4 9 mph 1016.4mb 57f 56f
1:10am  -   -   -  2 4 mph 1016.5mb 57f 57f
1:00am 3.5ft  -  8s 4
mph
1016.5mb 57f 57f
12:50am  -   -   -  4
mph
1016.5mb 57f 57f
12:49am 3.5ft 11s  -   -  mph - - -
12:40am  -   -   -  4
mph
1016.5mb 57f 56f
12:30am  -   -   -  4
mph
1016.5mb 57f 56f
12:20am  -   -   -  4 7 mph 1016.5mb 57f 56f
12:10am  -   -   -  4 7 mph 1016.5mb 57f 56f
12:00am 3.5ft  -  8s 4 7 mph 1016.5mb 57f 56f
Sun 05/01 11:50pm  -   -   -  4 7 mph 1016.6mb 57f 56f
11:49pm 3.5ft 10s  -   -  mph - - -
11:40pm  -   -   -  4 7 mph 1016.8mb 57f 56f
11:30pm  -   -   -  4
mph
1016.6mb 57f 56f
11:20pm  -   -   -  4 7 mph 1016.6mb 57f 56f
11:10pm  -   -   -  4 7 mph 1016.5mb 57f 56f
11:00pm 3.5ft  -  8s 4
mph
1016.5mb 57f 56f
10:50pm  -   -   -  4
mph
1016.4mb 57f 56f
10:49pm 3.5ft 8s  -   -  mph - - -
10:40pm  -   -   -  4 7 mph 1016.4mb 57f 56f
10:30pm  -   -   -  4 7 mph 1016.4mb 57f 56f
10:20pm  -   -   -  4 7 mph 1016.4mb 57f 56f
10:10pm  -   -   -  4 7 mph 1016.3mb 57f 56f
10:00pm 3.5ft  -  8s 4 7 mph 1016mb 57f 56f
9:50pm  -   -   -  4 7 mph 1016mb 57f 56f
9:49pm 3.5ft 11s  -   -  mph - - -
9:40pm  -   -   -  7
mph
1015.9mb 57f 56f
9:30pm  -   -   -  4 7 mph 1015.6mb 57f 56f
9:20pm  -   -   -  4 7 mph 1015.5mb 57f 56f
9:10pm  -   -   -  4 7 mph 1015.4mb 57f 56f
9:00pm 3.5ft  -  8s 4 7 mph 1015.3mb 57f 56f
8:50pm 3.5ft  -  8s 4 7 mph 1015mb 57f 56f
8:49pm 3.5ft 9s  -   -  mph - - -
8:40pm  -   -   -  4 7 mph 1015mb 57f 56f
8:30pm  -   -   -  7
mph
1014.9mb 57f 56f
8:20pm  -   -   -  4 7 mph 1014.8mb 57f 56f
8:10pm  -   -   -  4 7 mph 1014.8mb 57f 56f
8:00pm 4ft  -  8s 7 9 mph 1014.5mb 58f 56f
7:50pm 4ft  -  8s 4 7 mph 1014.5mb 58f 57f
7:49pm 4ft 9s  -   -  mph - - -
7:40pm  -   -   -  7 9 mph 1014.3mb 58f 57f
7:30pm  -   -   -  7 9 mph 1014.1mb 58f 57f
7:20pm  -   -   -  7 9 mph 1014mb 58f 57f
7:10pm  -   -   -  9 11 mph 1013.9mb 58f 57f
7:00pm 3.5ft  -  7s 9 11 mph 1013.6mb 58f 57f
6:50pm 3.5ft  -  7s 9 11 mph 1013.5mb 58f 57f
6:49pm 3.5ft 11s  -   -  mph - - -
6:40pm  -   -   -  9 11 mph 1013.5mb 58f 57f
6:30pm  -   -   -  7 9 mph 1013.5mb 58f 57f
6:20pm  -   -   -  7 9 mph 1013.5mb 58f 58f
6:10pm  -   -   -  7 9 mph 1013.4mb 58f 58f
6:00pm 4.5ft  -  7s 7 9 mph 1013.4mb 58f 58f
5:50pm 4.5ft  -  7s 7 9 mph 1013.5mb 57f 58f
5:49pm 4.5ft 11s  -   -  mph - - -
5:40pm  -   -   -  7 9 mph 1013.5mb 58f 58f
5:30pm  -   -   -  7 9 mph 1013.5mb 58f 58f
5:20pm  -   -   -  7
mph
1013.5mb 57f 58f
5:10pm  -   -   -  4 7 mph 1013.5mb 57f 58f
5:00pm 4.5ft  -  7s 4
mph
1013.5mb 58f 58f
4:50pm 4.5ft  -  7s 4 9 mph 1013.5mb 58f 58f
4:49pm 4.5ft 11s  -   -  mph - - -
4:40pm  -   -   -  7
mph
1013.8mb 58f 58f
4:30pm  -   -   -  7 11 mph 1013.8mb 58f 58f
4:20pm  -   -   -  7 9 mph 1013.6mb 58f 58f
4:10pm  -   -   -  4 7 mph 1013.8mb 57f 58f
4:00pm 4ft  -  7s 4 7 mph 1013.6mb 57f 58f
3:50pm  -   -   -  2 7 mph 1013.6mb 57f 58f
3:49pm 4ft 11s  -   -  mph - - -
3:40pm  -   -   -  2 4 mph 1013.8mb 57f 58f
3:30pm  -   -   -  2 4 mph 1013.9mb 57f 58f
3:20pm  -   -   -  2 4 mph 1013.9mb 57f 58f
3:10pm  -   -   -  2 4 mph 1014mb 57f 58f
3:00pm 4ft  -  7s 4 7 mph 1014.1mb 57f 58f
2:50pm  -   -   -  4 7 mph 1014.1mb 57f 58f
2:49pm 4ft 11s  -   -  mph - - -
2:40pm  -   -   -  4 9 mph 1014.1mb 57f 58f
2:30pm  -   -   -  4 7 mph 1014.1mb 57f 58f
2:20pm  -   -   -  4 9 mph 1014mb 57f 58f
2:10pm  -   -   -  2 7 mph 1014mb 57f 58f
2:00pm 4.5ft  -  7s 7 11 mph 1013.9mb 57f 58f
1:50pm  -   -   -  9 13 mph 1013.8mb 57f 58f
1:49pm 4.5ft 11s  -   -  mph - - -
1:40pm  -   -   -  9 11 mph 1013.9mb 57f 58f
1:30pm  -   -   -  9 13 mph 1013.8mb 57f 58f
1:20pm  -   -   -  11 13 mph 1013.6mb 57f 58f
1:10pm  -   -   -  11 13 mph 1013.6mb 57f 58f
1:00pm 4.5ft  -  8s 11 13 mph 1013.5mb 57f 58f
12:50pm  -   -   -  9 13 mph 1013.5mb 57f 58f
12:49pm 4.5ft 11s  -   -  mph - - -
12:40pm  -   -   -  9 11 mph 1013.6mb 57f 57f
12:30pm  -   -   -  9 11 mph 1013.6mb 57f 57f
12:20pm  -   -   -  9 11 mph 1013.9mb 57f 57f
12:10pm  -   -   -  9 11 mph 1013.9mb 56f 57f
12:00pm 4.5ft  -  8s 9 11 mph 1013.8mb 57f 57f
11:50am  -   -   -  9 16 mph 1013.8mb 56f 57f
11:49am 4.5ft 10s  -   -  mph - - -
11:40am 4.5ft  -  8s 9 13 mph 1013.9mb 56f 57f
11:30am  -   -   -  9 13 mph 1013.9mb 56f 57f
11:20am  -   -   -  9 13 mph 1013.9mb 56f 57f
11:10am  -   -   -  11 13 mph 1013.5mb 56f 57f
11:00am 4.5ft  -  7s 9 13 mph 1013.5mb 56f 57f
10:50am  -   -   -  9 16 mph 1013.6mb 56f 57f
10:49am 4.5ft 11s  -   -  mph - - -
10:40am  -   -   -  11 16 mph 1013.5mb 57f 57f
10:30am  -   -   -  13 16 mph 1013.4mb 56f 57f
10:20am  -   -   -  13 18 mph 1013.5mb 56f 57f
10:10am  -   -   -  13 16 mph 1013.5mb 56f 57f
10:00am 4.5ft  -  7s 13 18 mph 1013.4mb 56f 57f
9:50am  -   -   -  13 16 mph 1013.4mb 56f 57f
9:49am 4.5ft 11s  -   -  mph - - -
9:40am  -   -   -  13 16 mph 1013.4mb 56f 57f
9:30am  -   -   -  13 18 mph 1013.3mb 57f 57f
9:20am  -   -   -  13 18 mph 1013.3mb 57f 57f
9:10am  -   -   -  13 18 mph 1013.1mb 57f 57f
9:00am 5ft  -  7s 13 18 mph 1013mb 57f 57f
8:50am  -   -   -  13 16 mph 1013mb 57f 57f
8:49am 5ft 11s  -   -  mph - - -
8:40am  -   -   -  11 16 mph 1013mb 57f 57f
8:30am  -   -   -  11 16 mph 1012.9mb 57f 57f
8:20am  -   -   -  11 13 mph 1012.8mb 57f 57f
8:10am  -   -   -  13 18 mph 1012.6mb 57f 57f
8:00am 4.5ft  -  7s 11 16 mph 1012.5mb - 57f
7:50am  -   -   -  11 16 mph 1012.5mb 57f 57f
7:49am 4.5ft 11s  -   -  mph - - -
7:40am 4.5ft  -  7s 11 16 mph 1012.4mb 57f 57f
7:30am  -   -   -  11 16 mph 1012.1mb 57f 57f
7:20am  -   -   -  13 16 mph 1012mb 57f 57f
7:10am  -   -   -  13 18 mph 1011.9mb 57f 57f
7:00am 6ft  -  8s 13 18 mph 1011.8mb 57f 57f
6:50am 6ft  -  8s 13 16 mph 1011.6mb - 57f
6:49am 6ft 11s  -   -  mph - - -
6:40am  -   -   -  11 16 mph 1011.5mb 57f 56f
6:30am  -   -   -  11 16 mph 1011.5mb 56f 56f
6:20am  -   -   -  11 16 mph 1011.3mb 56f 56f
6:10am  -   -   -  11 16 mph 1011mb 56f 56f
6:00am 5.5ft  -  8s 11 16 mph 1011mb 56f 56f
5:50am  -   -   -  11 13 mph 1010.9mb 56f 56f
5:49am 5.5ft 11s  -   -  mph - - -
5:40am  -   -   -  9 13 mph 1010.6mb 56f 56f
5:30am  -   -   -  9 13 mph 1010.6mb 56f 56f
5:20am  -   -   -  11 13 mph 1010.5mb 56f 56f
5:10am  -   -   -  11 16 mph 1010.5mb 56f 56f
5:00am 5.5ft  -  8s 9 13 mph 1010.5mb 56f 56f
4:50am  -   -   -  11 13 mph 1010.5mb 56f 56f
4:49am 5.5ft 11s  -   -  mph - - -
4:40am  -   -   -  9 13 mph 1010.6mb 56f 55f
4:30am  -   -   -  7 11 mph 1010.8mb - 55f
4:20am  -   -   -  7 9 mph 1010.5mb 56f 55f
4:10am  -   -   -  4 7 mph 1010.5mb 56f 54f
4:00am 6ft  -  8s  -  4 mph 1010.5mb 56f 54f
3:50am  -   -   -   -  2 mph 1010.5mb 56f 54f
3:49am 6ft 11s  -   -  mph - - -
3:40am  -   -   -  2 4 mph 1010.5mb 56f 54f
3:30am  -   -   -  4 7 mph 1010.4mb 56f 54f
3:20am  -   -   -  7 9 mph 1010.3mb 56f 54f
3:10am  -   -   -  7
mph
1010.3mb 56f 54f
3:00am 6ft  -  7s 7
mph
1010.1mb 56f 54f
2:50am  -   -   -  4 7 mph 1010mb 56f 54f
2:49am 6ft 11s  -   -  mph - - -
2:40am 6ft  -  7s 7
mph
1010.1mb 56f 55f
2:30am  -   -   -  7
mph
1010.1mb 56f 55f
2:20am  -   -   -  7
mph
1010.1mb 56f 55f
2:10am  -   -   -  4 7 mph 1010mb 56f 55f
2:00am  -   -   -  4 7 mph 1009.9mb 56f 55f
1:50am  -   -   -  4 7 mph 1010mb 56f 55f
1:40am  -   -   -  4 7 mph 1010mb 56f 55f
1:30am  -   -   -  7 9 mph 1010.1mb 56f 55f
1:20am  -   -   -  7 9 mph 1010.3mb 56f 55f
1:10am  -   -   -  7 9 mph 1010mb 56f 55f
1:00am 5.5ft  -  7s 7 9 mph 1010.1mb 56f 55f
12:50am  -   -   -  7 9 mph 1010.3mb 56f 55f
12:49am 5.5ft 10s  -   -  mph - - -
12:40am  -   -   -  9 11 mph 1010.1mb 56f 55f
12:30am  -   -   -  9 11 mph 1010.3mb 56f 55f
12:20am  -   -   -  7 11 mph 1010.3mb 56f 55f
12:10am  -   -   -  9 13 mph 1010.1mb 56f 55f
12:00am 5.5ft  -  7s 9 13 mph 1010.3mb 56f 55f
Sat 04/30 11:50pm  -   -   -  11 13 mph 1010mb 56f 55f
11:49pm 5.5ft 11s  -   -  mph - - -
11:40pm  -   -   -  11 13 mph 1010.3mb 56f 55f
11:30pm  -   -   -  11 16 mph 1010.1mb 56f 55f
11:20pm  -   -   -  11 13 mph 1010mb 56f 55f
11:10pm  -   -   -  11 16 mph 1010mb 56f 55f
11:00pm 5.5ft  -  6s 11 16 mph 1010.3mb 56f 55f
10:50pm  -   -   -  11 13 mph 1010mb 56f 56f
10:49pm 5.5ft 12s  -   -  mph - - -
10:40pm 5.5ft  -  6s 9
mph
1010.1mb 56f 56f
10:30pm  -   -   -  7 9 mph 1010.3mb 56f 56f
10:20pm  -   -   -  4 7 mph 1010.4mb 56f 56f
10:10pm  -   -   -  4
mph
1010.3mb 56f 57f
10:00pm 6ft  -  6s 2 4 mph 1010.1mb 56f 57f
9:50pm  -   -   -  2 4 mph 1010.1mb 56f 57f
9:49pm 6ft 10s  -   -  mph - - -
9:40pm  -   -   -  2 4 mph 1010mb 56f 57f
9:30pm  -   -   -  2 4 mph 1009.9mb 56f 57f
9:20pm  -   -   -  4 7 mph 1009.8mb 56f 57f
9:10pm  -   -   -  9 13 mph 1009.9mb 56f 56f
9:00pm 6ft  -  6s 11 16 mph 1009.5mb 56f 56f
8:50pm 6ft  -  6s 11 16 mph 1009.1mb 56f 57f
8:49pm 6ft 12s  -   -  mph - - -
8:40pm  -   -   -  11 16 mph 1009.1mb 56f 57f
8:30pm  -   -   -  13 18 mph 1009mb 56f 57f
8:20pm  -   -   -  16 18 mph 1008.9mb 56f 57f
8:10pm  -   -   -  16 20 mph 1008.6mb 56f 57f
8:00pm 6ft  -  6s 13 18 mph 1008.6mb 56f 57f
7:50pm 6ft  -  6s 16 18 mph 1008.6mb 56f 57f
7:49pm 6ft 11s  -   -  mph - - -
7:40pm 6ft  -  6s 13 18 mph 1008.4mb 56f 57f
7:30pm  -   -   -  16 18 mph 1008.1mb 56f 58f
7:20pm  -   -   -  18 20 mph 1008.1mb 57f 58f
7:10pm  -   -   -  16 20 mph 1008mb 56f 58f
7:00pm 6.5ft  -  6s 16 20 mph 1008.1mb 57f 58f
6:50pm 6.5ft  -  6s 16 18 mph 1008.1mb 57f 59f
6:49pm 6.5ft 11s  -   -  mph - - -
6:40pm  -   -   -  18 22 mph 1008.1mb 57f 59f
6:30pm  -   -   -  18 22 mph 1008mb 57f 58f
6:20pm  -   -   -  18 22 mph 1008mb 57f 58f
6:10pm  -   -   -  18 22 mph 1008mb 57f 58f
6:00pm 7ft  -  6s 18 22 mph 1008mb 57f 58f
5:50pm 7ft  -  6s 18 22 mph 1008mb 56f 58f
5:49pm 7ft 11s  -   -  mph - - -
5:40pm 7ft  -  6s 18 22 mph 1008mb 56f 58f
5:30pm  -   -   -  18 22 mph 1008.1mb 56f 58f
5:20pm  -   -   -  18 22 mph 1008mb 56f 58f
5:10pm  -   -   -  18 22 mph 1008mb 56f 58f
5:00pm 7ft  -  6s 9 20 mph 1008.1mb 56f 58f
4:50pm 7ft  -  6s 7 13 mph 1008.5mb 56f 57f
4:49pm 7ft 10s 6s  -  mph - - -
4:40pm  -   -   -  13 18 mph 1008.5mb 56f 57f
4:10pm  -   -   -  18 22 mph 1008.5mb 56f 57f
4:00pm 7ft  -  6s 18 22 mph 1008.6mb 56f 57f
3:50pm  -   -   -  18 22 mph 1008.9mb 56f 57f
3:49pm 7ft 11s  -   -  mph - - -
3:40pm  -   -   -  13 20 mph 1009.1mb 56f 57f
3:30pm  -   -   -  7 13 mph 1009.4mb 56f 57f
3:20pm  -   -   -   -  2 mph 1009.5mb 56f 57f
3:10pm  -   -   -  4 9 mph 1009.8mb 56f 56f
3:00pm 6.5ft  -  6s 9 11 mph 1009.9mb 56f 56f
2:50pm 6.5ft  -  6s 7 11 mph 1010mb 56f 56f
2:49pm 6.5ft 10s  -   -  mph - - -
2:40pm 6.5ft  -  6s 4 9 mph 1010.4mb 56f 56f
2:30pm  -   -   -  4 9 mph 1010.5mb 56f 56f
2:20pm  -   -   -  4 9 mph 1010.5mb 56f 56f
2:10pm  -   -   -  7 9 mph 1010.5mb 56f 56f
2:00pm 6ft  -  7s 7 11 mph 1010.6mb 56f 56f
1:50pm  -   -   -  9 11 mph 1010.6mb 56f 56f
1:49pm 6ft 11s  -   -  mph - - -
1:40pm  -   -   -  9 13 mph 1010.8mb 56f 55f
1:30pm  -   -   -  11 13 mph 1010.6mb 56f 55f
1:20pm  -   -   -  11 16 mph 1010.6mb 56f 55f
1:10pm  -   -   -  13 20 mph 1010.5mb 56f 55f
1:00pm 6.5ft  -  7s 16 18 mph 1010.5mb 56f 55f
12:50pm  -   -   -  16 22 mph 1010.5mb 56f 55f
12:49pm 6.5ft 11s  -   -  mph - - -
12:40pm 6.5ft  -  7s 18 22 mph 1010.5mb 56f 55f
12:30pm  -   -   -  18 25 mph 1010.6mb 56f 54f
12:20pm  -   -   -  20 25 mph - - 54f
12:10pm  -   -   -  20 25 mph 1010.5mb 56f 55f
12:00pm 6ft  -  7s 18 25 mph 1010.6mb 56f 55f
11:50am  -   -   -  16 18 mph 1010.8mb 56f 55f
11:49am 6ft 9s  -   -  mph - - -
11:40am  -   -   -  13 18 mph 1010.9mb 56f 55f
11:30am  -   -   -  13 18 mph 1011mb 56f 55f
11:20am  -   -   -  13 16 mph 1011mb 56f 55f
11:10am  -   -   -  9 13 mph 1011.3mb 56f 55f
11:00am 6ft  -  7s 9 13 mph 1011.4mb 56f 56f
10:50am  -   -   -  9 13 mph 1011.5mb 56f 56f
10:49am 6ft 11s  -   -  mph - - -
10:40am  -   -   -  9 11 mph 1011.6mb 56f 55f
10:30am  -   -   -  9 11 mph 1011.6mb 56f 55f
10:20am  -   -   -  9 11 mph 1011.6mb 56f 55f
10:10am  -   -   -  7 9 mph 1011.5mb 56f 55f
10:00am 6ft  -  7s 7 11 mph 1011.5mb 56f 55f
9:50am  -   -   -  7 9 mph 1011.5mb 56f 55f
9:49am 6ft 10s  -   -  mph - - -
9:40am  -   -   -  4 7 mph 1011.5mb 56f 55f
9:30am  -   -   -  4 7 mph 1011.5mb 56f 55f
9:20am  -   -   -  2 4 mph 1011.6mb 56f 55f
9:10am  -   -   -  4 9 mph 1011.8mb 56f 55f
9:00am 6ft  -  7s 7 11 mph 1011.6mb 56f 55f
8:50am 6ft  -  7s 9 11 mph 1011.8mb 56f 55f
8:49am 6ft 11s  -   -  mph - - -
8:40am  -   -   -  7 11 mph 1011.9mb 56f 55f
8:30am  -   -   -  7 9 mph 1011.8mb 56f 55f
8:20am  -   -   -  7 9 mph 1011.9mb 56f 55f
8:10am  -   -   -  7 9 mph 1011.9mb 56f 55f
8:00am 5.5ft  -  6s 7 9 mph 1012mb 56f 55f
7:50am  -   -   -  7 9 mph 1012mb 56f 55f
7:49am 5.5ft 9s  -   -  mph - - -
7:40am  -   -   -  7 9 mph 1011.6mb 56f 55f
7:30am  -   -   -  4 7 mph 1011.3mb 55f 55f
7:20am  -   -   -   -  4 mph 1011.3mb 55f 55f
7:10am  -   -   -  2 4 mph 1011.5mb 55f 55f
7:00am 6.5ft  -  7s 2 7 mph 1011.1mb 56f 55f
6:50am  -   -   -  2 7 mph 1010.9mb 56f 55f
6:49am 6.5ft 13s  -   -  mph - - -
6:40am  -   -   -  4 7 mph 1010.8mb 56f 55f
6:30am  -   -   -  7 9 mph 1010.5mb 55f 54f
6:20am  -   -   -  9 11 mph 1010.6mb 55f 54f
6:10am  -   -   -  9 13 mph 1010.6mb 55f 54f
6:00am 6.5ft  -  6s 11 16 mph 1010.5mb 55f 54f
5:50am 6.5ft  -  6s 13 16 mph 1010.5mb 55f 54f
5:49am 6.5ft 11s  -   -  mph - - -
5:40am  -   -   -  11 16 mph 1010.5mb 55f 54f
5:30am  -   -   -  13 18 mph 1010.4mb 55f 54f
5:20am  -   -   -  13 20 mph 1010.5mb 55f 54f
5:10am  -   -   -  16 22 mph 1010.6mb 55f 54f
5:00am 6.5ft  -  6s 20 27 mph 1010.5mb 55f 54f
4:50am  -   -   -  25 31 mph 1010.1mb 55f 54f
4:49am 6.5ft 8s  -   -  mph - - -
4:40am  -   -   -  20 29 mph 1010mb 55f 54f
4:30am  -   -   -  16 22 mph 1010.4mb 55f 54f
4:20am  -   -   -  16 20 mph 1010.4mb 55f 54f
4:10am  -   -   -  20 25 mph 1010.4mb 55f 54f
4:00am 6ft  -  6s 16 22 mph 1010.5mb - -
3:50am  -   -   -  18 22 mph 1010.6mb 55f 54f
3:49am 6ft 6s  -   -  mph - - -
3:40am  -   -   -  18 22 mph 1010.8mb 55f 54f
3:30am  -   -   -  16 22 mph 1011mb 55f 55f
3:20am  -   -   -  16 20 mph 1010.9mb 55f 55f
3:10am  -   -   -  20 27 mph 1010.5mb 55f 55f
3:00am 7ft  -  6s 25 31 mph 1010.4mb 55f 55f
2:50am  -   -   -  25 31 mph 1010.5mb 55f 55f
2:49am 7ft 12s  -   -  mph - - -
2:40am 7ft  -  6s 25 31 mph 1010.5mb 56f 55f
2:30am  -   -   -  25 31 mph 1010.5mb 56f 55f
2:20am  -   -   -  20 29 mph 1010.9mb 56f 55f
2:10am  -   -   -  16 22 mph 1011.1mb 56f 55f
2:00am 6ft  -  6s 20 25 mph 1011.4mb 56f 55f
1:50am  -   -   -  20 25 mph 1011.5mb 56f 55f
1:49am 6ft 6s  -   -  mph - - -
1:40am  -   -   -  20 25 mph 1011.9mb 56f 55f
1:30am  -   -   -  20 27 mph 1012mb 56f 55f
1:20am  -   -   -  20 25 mph 1011.6mb 56f 55f
1:10am  -   -   -  18 25 mph 1011.8mb 56f 56f
1:00am 6.5ft  -  6s 20 27 mph 1011.6mb 56f 55f
12:50am  -   -   -  22 29 mph 1011.6mb 56f 55f
12:49am 6.5ft 7s  -   -  mph - - -
12:40am  -   -   -  20 29 mph 1011.8mb 56f 55f
12:30am  -   -   -  16 22 mph 1012mb - -
12:20am  -   -   -  18 25 mph 1012.1mb 55f 55f
12:10am  -   -   -  20 25 mph 1012.5mb 55f 55f
12:00am 6ft  -  5s 20 29 mph 1012.4mb 56f 55f
Fri 04/29 11:50pm 6ft  -  5s 25 29 mph 1012.4mb 56f 55f
11:49pm 6ft 6s  -   -  mph - - -
11:40pm  -   -   -  27 34 mph 1012.3mb 56f 55f
11:30pm  -   -   -  25 34 mph 1012.1mb 56f 55f
11:20pm  -   -   -  22 29 mph 1012.3mb 56f 55f
11:10pm  -   -   -  22 27 mph 1012.3mb 56f 55f
11:00pm 6ft  -  5s 20 29 mph 1012.5mb 56f 55f
10:50pm  -   -   -  20 27 mph 1012.8mb 56f 55f
10:49pm 6ft 13s  -   -  mph - - -
10:40pm  -   -   -  18 29 mph 1012.9mb 56f 55f
10:30pm  -   -   -  18 25 mph 1013.1mb 56f 55f
10:20pm  -   -   -  18 22 mph 1013mb 55f 55f
10:10pm  -   -   -  20 27 mph 1013mb 55f 55f
10:00pm 6ft  -  6s 18 22 mph 1013mb 55f 56f
9:50pm  -   -   -  20 29 mph 1013mb 56f 55f
9:49pm 6ft 6s  -   -  mph - - -
9:40pm  -   -   -  22 29 mph 1013.1mb 55f 55f
9:30pm  -   -   -  25 29 mph 1013mb 55f 55f
9:20pm  -   -   -  25 31 mph 1013mb 55f 55f
9:10pm  -   -   -  27 34 mph 1012.9mb 55f 55f
9:00pm 7ft  -  6s 27 34 mph 1012.9mb 55f 55f
8:50pm  -   -   -  25 29 mph 1013mb 55f 55f
8:49pm 7ft 6s  -   -  mph - - -
8:40pm 7ft  -  6s 25 29 mph 1013mb 55f 55f
8:30pm  -   -   -  25 29 mph 1013mb 55f 55f
8:20pm  -   -   -  25 29 mph 1013mb 55f 56f
8:10pm  -   -   -  25 29 mph 1012.9mb 55f 56f
8:00pm 7ft  -  6s 22 29 mph 1012.9mb 55f 56f
7:50pm 7ft  -  6s 20 29 mph 1013mb 55f 56f
7:49pm 7ft 6s  -   -  mph - - -
7:40pm  -   -   -  20 27 mph 1013mb 55f 56f
7:30pm  -   -   -  25 31 mph 1012.9mb 55f 56f
7:20pm  -   -   -  27 34 mph 1012.5mb 55f 56f
7:10pm  -   -   -  25 31 mph 1012.6mb 56f 56f